Iliysk North Airport

Jump to: basic info | weather | comments

Related pages: nearby airports | nearby navaids

Basic information (top)

Location: lon 43.998299, lat 77.139099, elev 2,343 ft / 714 m msl
Status: small_airport

Weather (top)

Current conditions for Almaty Airport 39nm (72km) S (rec'd 2014/07/30 08:30Z):

UAAA 300830Z 06003MPS 9999 FEW050 FEW100 26/M02 Q1012 R88/65D NOSIG

Airport forecast for Almaty Airport 39nm (72km) S (rec'd 2014/07/30 06:18Z):

TAF TAF UAAA 300500Z 3006/3106 02005MPS 9999 SCT050CB BKN100 TX26/3009Z TN10/3101Z PROB40 
      TEMPO 3008/3016 TS 
      BECMG 3016/3017 16005MPS

Latest comments (top)

No comments yet for Iliysk North Airport

More... (top)

See also NOTAMs and nearby airports and navaids, or visit the Iliysk North Airport page at the main OurAirports website..